Time;durP1;ratioP1;P1;durP2;ratioP2;P2;SDS_P1;SDS_P2;PMS_P1;PMS_P2;Temp;Humidity;BMP_temperature;BMP_pressure;BME280_temperature;BME280_humidity;BME280_pressure;Samples;Min_cycle;Max_cycle;Signal;HPM_P1;HPM_P2
2021/11/10 00:00:16;;;;;;;8.20;4.93;;;8.20;99.90;;;;;;4105900;28;20547;-73
2021/11/10 00:02:16;;;;;;;10.32;5.38;;;8.20;99.90;;;;;;4125007;28;20041;-73
2021/11/10 00:04:19;;;;;;;11.20;5.05;;;8.10;99.90;;;;;;4121769;28;20030;-73
2021/11/10 00:06:20;;;;;;;11.82;4.93;;;8.10;99.90;;;;;;4123077;28;20104;-73
2021/11/10 00:08:20;;;;;;;8.85;4.95;;;8.10;99.90;;;;;;4127530;28;20038;-73
2021/11/10 00:10:21;;;;;;;8.73;4.85;;;8.10;99.90;;;;;;4124996;28;20049;-73
2021/11/10 00:12:22;;;;;;;9.25;5.13;;;8.10;99.90;;;;;;4126939;28;20045;-73
2021/11/10 00:14:22;;;;;;;8.60;4.97;;;8.10;99.90;;;;;;4126066;28;20052;-73
2021/11/10 00:16:23;;;;;;;8.52;4.75;;;8.10;99.90;;;;;;4122041;28;20026;-73
2021/11/10 00:18:24;;;;;;;13.05;5.53;;;8.00;99.90;;;;;;4126598;28;20054;-73
2021/11/10 00:20:24;;;;;;;11.50;5.10;;;8.00;99.90;;;;;;4124840;28;20205;-73
2021/11/10 00:22:26;;;;;;;13.82;5.50;;;8.00;99.90;;;;;;4126507;28;20564;-73
2021/11/10 00:24:26;;;;;;;9.73;5.35;;;8.00;99.90;;;;;;4121018;28;20045;-73
2021/11/10 00:26:27;;;;;;;10.88;5.63;;;8.00;99.90;;;;;;4123751;28;20549;-73
2021/11/10 00:28:28;;;;;;;8.32;4.50;;;8.00;99.90;;;;;;4121693;28;20053;-73
2021/11/10 00:30:29;;;;;;;8.27;4.80;;;8.00;99.90;;;;;;4123603;28;20039;-73
2021/11/10 00:32:29;;;;;;;12.95;4.72;;;8.00;99.90;;;;;;4126155;28;20515;-73
2021/11/10 00:34:30;;;;;;;10.02;4.88;;;8.00;99.90;;;;;;4121218;28;20113;-74
2021/11/10 00:36:30;;;;;;;8.98;4.78;;;8.00;99.90;;;;;;4125175;28;20050;-73
2021/11/10 00:38:31;;;;;;;7.00;4.38;;;8.00;99.90;;;;;;4125814;28;20550;-73
2021/11/10 00:40:32;;;;;;;9.32;4.68;;;8.10;99.90;;;;;;4126170;28;20069;-73
2021/11/10 00:42:32;;;;;;;8.70;4.65;;;8.10;99.90;;;;;;4125977;28;20102;-73
2021/11/10 00:44:33;;;;;;;9.48;4.50;;;8.10;99.90;;;;;;4126509;28;20035;-73
2021/11/10 00:46:34;;;;;;;10.07;4.75;;;8.10;99.90;;;;;;4122752;28;20034;-73
2021/11/10 00:48:35;;;;;;;9.02;4.10;;;8.10;99.90;;;;;;4124489;28;20030;-73
2021/11/10 00:50:35;;;;;;;8.43;4.72;;;8.20;99.90;;;;;;4123563;28;20019;-73
2021/11/10 00:52:36;;;;;;;8.60;4.30;;;8.20;99.90;;;;;;4124128;28;20056;-74
2021/11/10 00:54:37;;;;;;;8.75;4.70;;;8.20;99.90;;;;;;4121991;28;20561;-73
2021/11/10 00:56:37;;;;;;;7.72;4.40;;;8.20;99.90;;;;;;4122469;28;20030;-74
2021/11/10 00:58:38;;;;;;;9.35;4.80;;;8.30;99.90;;;;;;4124509;28;20095;-74
2021/11/10 01:00:39;;;;;;;8.13;4.68;;;8.20;99.90;;;;;;4120358;28;20069;-73
2021/11/10 01:02:39;;;;;;;8.50;4.60;;;8.20;99.90;;;;;;4125486;28;20038;-73
2021/11/10 01:04:40;;;;;;;10.00;4.82;;;8.20;99.90;;;;;;4124085;28;20059;-73
2021/11/10 01:06:41;;;;;;;10.15;5.00;;;8.10;99.90;;;;;;4125264;28;20605;-74
2021/11/10 01:08:42;;;;;;;8.10;4.75;;;8.10;99.90;;;;;;4123905;28;20034;-74
2021/11/10 01:10:42;;;;;;;10.68;4.68;;;8.00;99.90;;;;;;4122417;28;20034;-73
2021/11/10 01:12:43;;;;;;;8.55;4.70;;;8.00;99.90;;;;;;4123459;28;20035;-73
2021/11/10 01:14:44;;;;;;;11.50;5.22;;;8.00;99.90;;;;;;4121134;28;20038;-73
2021/11/10 01:16:46;;;;;;;8.60;4.40;;;8.00;99.90;;;;;;4126266;28;20505;-74
2021/11/10 01:18:46;;;;;;;11.52;5.35;;;8.00;99.90;;;;;;4120365;28;22302;-73
2021/11/10 01:20:47;;;;;;;9.10;5.20;;;8.00;99.90;;;;;;4123040;28;20476;-74
2021/11/10 01:22:48;;;;;;;9.80;5.53;;;7.90;99.90;;;;;;4118726;28;20077;-74
2021/11/10 01:24:49;;;;;;;9.75;4.75;;;7.90;99.90;;;;;;4129145;28;20133;-74
2021/11/10 01:26:49;;;;;;;8.18;4.55;;;7.90;99.90;;;;;;4118971;28;20054;-73
2021/11/10 01:28:50;;;;;;;8.70;4.55;;;7.90;99.90;;;;;;4121019;28;20626;-74
2021/11/10 01:30:51;;;;;;;11.48;5.60;;;7.80;99.90;;;;;;4123597;28;20165;-73
2021/11/10 01:32:52;;;;;;;8.57;4.88;;;7.80;99.90;;;;;;4125108;28;20046;-73
2021/11/10 01:34:53;;;;;;;9.32;5.15;;;7.80;99.90;;;;;;4128548;28;20556;-73
2021/11/10 01:36:53;;;;;;;8.82;4.80;;;7.70;99.90;;;;;;4123661;28;20105;-73
2021/11/10 01:38:54;;;;;;;8.70;4.70;;;7.70;99.90;;;;;;4123456;28;20039;-73
2021/11/10 01:40:54;;;;;;;9.82;5.00;;;7.70;99.90;;;;;;4126886;28;20046;-73
2021/11/10 01:43:17;;;;;;;7.95;4.55;;;7.70;99.90;;;;;;4125150;28;20029;-73
2021/11/10 01:45:18;;;;;;;9.70;5.00;;;7.70;99.90;;;;;;4124265;28;20043;-74
2021/11/10 01:47:19;;;;;;;9.25;4.65;;;7.70;99.90;;;;;;4120908;28;20297;-73
2021/11/10 01:49:20;;;;;;;11.07;4.85;;;7.60;99.90;;;;;;4122653;28;20481;-73
2021/11/10 01:51:24;;;;;;;8.00;4.50;;;7.70;99.90;;;;;;4124267;28;20083;-73
2021/11/10 01:53:25;;;;;;;10.40;5.03;;;7.70;99.90;;;;;;4121895;28;20027;-73
2021/11/10 01:55:27;;;;;;;11.73;5.68;;;7.60;99.90;;;;;;4128206;28;20049;-73
2021/11/10 01:57:29;;;;;;;9.90;4.95;;;7.60;99.90;;;;;;4124732;28;20034;-73
2021/11/10 01:59:44;;;;;;;9.25;4.70;;;7.60;99.90;;;;;;4121404;28;20042;-73
2021/11/10 02:01:46;;;;;;;9.95;4.95;;;7.60;99.90;;;;;;4122571;28;20137;-73
2021/11/10 02:03:47;;;;;;;9.93;5.07;;;7.60;99.90;;;;;;4121329;28;20038;-73
2021/11/10 02:05:48;;;;;;;8.25;4.63;;;7.60;99.90;;;;;;4122909;28;20035;-73
2021/11/10 02:07:50;;;;;;;8.02;5.03;;;7.50;99.90;;;;;;4124055;28;20037;-74
2021/11/10 02:09:51;;;;;;;8.52;4.75;;;7.60;99.90;;;;;;4118858;28;20702;-73
2021/11/10 02:11:54;;;;;;;7.78;4.88;;;7.60;99.90;;;;;;4122785;28;20058;-73
2021/11/10 02:13:55;;;;;;;9.38;4.47;;;7.60;99.90;;;;;;4119314;28;20117;-73
2021/11/10 02:15:55;;;;;;;7.85;4.07;;;7.60;99.90;;;;;;4123544;28;20038;-74
2021/11/10 02:17:58;;;;;;;12.77;4.53;;;7.60;99.90;;;;;;4125410;28;20034;-73
2021/11/10 02:19:58;;;;;;;7.90;4.60;;;7.70;99.90;;;;;;4126394;28;20426;-74
2021/11/10 02:22:01;;;;;;;9.48;4.90;;;7.70;99.90;;;;;;4122060;28;20031;-73
2021/11/10 02:24:02;;;;;;;;;;;7.70;99.90;;;;;;4123276;28;20042;-73
2021/11/10 02:26:05;;;;;;;11.20;4.70;;;7.70;99.90;;;;;;4124259;28;20308;-73
2021/11/10 02:28:05;;;;;;;9.27;4.53;;;7.70;99.90;;;;;;4124471;28;20557;-74
2021/11/10 02:30:20;;;;;;;9.30;4.40;;;7.70;99.90;;;;;;4124080;28;20120;-73
2021/11/10 02:32:22;;;;;;;6.65;4.03;;;7.80;99.90;;;;;;4127963;28;20026;-74
2021/11/10 02:34:23;;;;;;;7.75;4.10;;;7.80;99.90;;;;;;4123881;28;20093;-73
2021/11/10 02:36:23;;;;;;;6.50;4.20;;;7.80;99.90;;;;;;4121890;28;20034;-73
2021/11/10 02:38:24;;;;;;;8.02;4.18;;;7.80;99.90;;;;;;4120116;28;20026;-73
2021/11/10 02:40:27;;;;;;;8.93;4.45;;;7.80;99.90;;;;;;4121323;28;20038;-73
2021/11/10 02:42:27;;;;;;;4.55;3.30;;;7.80;99.90;;;;;;4122195;28;20602;-73
2021/11/10 02:44:28;;;;;;;6.72;3.95;;;7.80;99.90;;;;;;4122734;28;20031;-74
2021/11/10 02:46:28;;;;;;;6.38;4.10;;;7.70;99.90;;;;;;4124943;28;20145;-73
2021/11/10 02:48:29;;;;;;;5.18;3.78;;;7.70;99.90;;;;;;4125472;28;20033;-73
2021/11/10 02:50:31;;;;;;;10.52;4.13;;;7.70;99.90;;;;;;4123663;28;21249;-73
2021/11/10 02:52:31;;;;;;;8.80;4.57;;;7.70;99.90;;;;;;4123287;28;20148;-73
2021/11/10 02:54:35;;;;;;;6.45;3.78;;;7.70;99.90;;;;;;4122653;28;20026;-74
2021/11/10 02:56:36;;;;;;;10.95;4.90;;;7.70;99.90;;;;;;4124353;28;20042;-73
2021/11/10 02:58:38;;;;;;;11.00;4.93;;;7.60;99.90;;;;;;4125311;28;20450;-74
2021/11/10 03:00:38;;;;;;;7.13;4.30;;;7.70;99.90;;;;;;4125676;28;20065;-73
2021/11/10 03:02:39;;;;;;;7.25;4.10;;;7.60;99.90;;;;;;4130126;28;20037;-74
2021/11/10 03:04:46;;;;;;;8.75;4.70;;;7.60;99.90;;;;;;4123184;28;20510;-73
2021/11/10 03:06:47;;;;;;;7.75;4.55;;;7.60;99.90;;;;;;4126829;28;20109;-73
2021/11/10 03:08:48;;;;;;;10.68;4.72;;;7.50;99.90;;;;;;4125859;28;20042;-73
2021/11/10 03:10:50;;;;;;;7.45;4.50;;;7.50;99.90;;;;;;4124939;28;20138;-73
2021/11/10 03:12:51;;;;;;;9.88;4.18;;;7.50;99.90;;;;;;4121895;28;20672;-73
2021/11/10 03:14:51;;;;;;;8.30;4.60;;;7.50;99.90;;;;;;4127900;28;20092;-73
2021/11/10 03:16:53;;;;;;;7.50;3.90;;;7.50;99.90;;;;;;4124587;28;21645;-73
2021/11/10 03:18:53;;;;;;;8.18;4.10;;;7.50;99.90;;;;;;4124746;28;20734;-74
2021/11/10 03:20:54;;;;;;;7.20;4.22;;;7.50;99.90;;;;;;4126916;28;20042;-73
2021/11/10 03:22:55;;;;;;;5.82;3.63;;;7.50;99.90;;;;;;4125746;28;20477;-73
2021/11/10 03:24:55;;;;;;;7.60;4.00;;;7.50;99.90;;;;;;4125174;28;20107;-73
2021/11/10 03:26:56;;;;;;;5.55;3.58;;;7.50;99.90;;;;;;4127710;28;20038;-74
2021/11/10 03:28:57;;;;;;;7.57;3.85;;;7.50;99.90;;;;;;4129426;28;20043;-74
2021/11/10 03:30:57;;;;;;;5.93;3.92;;;7.50;99.90;;;;;;4127187;28;20207;-73
2021/11/10 03:32:58;;;;;;;7.13;3.80;;;7.50;99.90;;;;;;4120256;28;20129;-73
2021/11/10 03:34:59;;;;;;;8.25;4.22;;;7.50;99.90;;;;;;4125028;28;20037;-73
2021/11/10 03:37:00;;;;;;;5.90;3.67;;;7.50;99.90;;;;;;4122622;28;20038;-74
2021/11/10 03:39:03;;;;;;;6.40;4.00;;;7.50;99.90;;;;;;4122010;28;20643;-73
2021/11/10 03:41:04;;;;;;;8.40;3.72;;;7.50;99.90;;;;;;4125886;28;20671;-73
2021/11/10 03:43:05;;;;;;;8.52;4.10;;;7.50;99.90;;;;;;4128228;28;20096;-73
2021/11/10 03:45:06;;;;;;;7.60;4.22;;;7.50;99.90;;;;;;4122694;28;20038;-73
2021/11/10 03:47:07;;;;;;;11.07;4.80;;;7.50;99.90;;;;;;4125370;28;20046;-73
2021/11/10 03:49:09;;;;;;;8.18;4.13;;;7.50;99.90;;;;;;4125846;28;20036;-73
2021/11/10 03:51:09;;;;;;;6.90;3.97;;;7.50;99.90;;;;;;4128308;28;20117;-74
2021/11/10 03:53:10;;;;;;;6.30;4.03;;;7.50;99.90;;;;;;4125045;28;20583;-73
2021/11/10 03:55:11;;;;;;;9.27;4.32;;;7.50;99.90;;;;;;4124739;28;20052;-73
2021/11/10 03:57:12;;;;;;;6.97;4.60;;;7.50;99.90;;;;;;4127692;28;20125;-73
2021/11/10 03:59:13;;;;;;;10.32;4.75;;;7.50;99.90;;;;;;4129864;28;20031;-73
2021/11/10 04:01:14;;;;;;;6.97;3.70;;;7.50;99.90;;;;;;4124229;28;20528;-74
2021/11/10 04:03:15;;;;;;;7.05;4.05;;;7.50;99.90;;;;;;4121579;28;20050;-73
2021/11/10 04:05:15;;;;;;;8.13;4.38;;;7.50;99.90;;;;;;4123230;28;20038;-73
2021/11/10 04:07:16;;;;;;;11.48;4.80;;;7.50;99.90;;;;;;4122084;28;20114;-73
2021/11/10 04:09:17;;;;;;;8.40;4.45;;;7.50;99.90;;;;;;4124384;28;20109;-73
2021/11/10 04:11:20;;;;;;;7.60;4.18;;;7.50;99.90;;;;;;4124883;28;20026;-73
2021/11/10 04:13:21;;;;;;;9.32;4.72;;;7.50;99.90;;;;;;4121944;28;20053;-73
2021/11/10 04:15:22;;;;;;;7.37;4.70;;;7.50;99.90;;;;;;4126203;28;20034;-74
2021/11/10 04:17:23;;;;;;;10.77;4.40;;;7.50;99.90;;;;;;4122394;28;20101;-74
2021/11/10 04:19:23;;;;;;;9.57;5.03;;;7.40;99.90;;;;;;4120426;28;20117;-73
2021/11/10 04:21:24;;;;;;;9.65;4.72;;;7.40;99.90;;;;;;4127550;28;20045;-74
2021/11/10 04:23:26;;;;;;;9.75;5.00;;;7.40;99.90;;;;;;4122814;28;20065;-74
2021/11/10 04:25:27;;;;;;;7.18;4.63;;;7.30;99.90;;;;;;4124698;28;20049;-74
2021/11/10 04:27:28;;;;;;;7.93;4.20;;;7.30;99.90;;;;;;4125509;28;20057;-73
2021/11/10 04:29:28;;;;;;;6.60;4.63;;;7.30;99.90;;;;;;4124987;28;20569;-74
2021/11/10 04:31:29;;;;;;;8.23;4.07;;;7.30;99.90;;;;;;4123425;28;20089;-73
2021/11/10 04:33:30;;;;;;;10.18;4.55;;;7.30;99.90;;;;;;4128828;28;20036;-74
2021/11/10 04:35:30;;;;;;;7.82;4.78;;;7.30;99.90;;;;;;4124612;28;20034;-73
2021/11/10 04:37:31;;;;;;;6.85;4.30;;;7.30;99.90;;;;;;4126080;28;20042;-74
2021/11/10 04:39:32;;;;;;;6.45;4.38;;;7.30;99.90;;;;;;4124138;28;20149;-74
2021/11/10 04:41:33;;;;;;;7.30;4.57;;;7.40;99.90;;;;;;4122602;28;20556;-74
2021/11/10 04:43:34;;;;;;;8.48;4.47;;;7.40;99.90;;;;;;4123501;28;20078;-73
2021/11/10 04:45:37;;;;;;;10.82;4.93;;;7.40;99.90;;;;;;4122919;28;20046;-74
2021/11/10 04:47:37;;;;;;;8.75;5.15;;;7.30;99.90;;;;;;4128293;28;20038;-73
2021/11/10 04:49:38;;;;;;;10.43;4.97;;;7.30;99.90;;;;;;4124743;28;20041;-74
2021/11/10 04:51:39;;;;;;;9.73;4.60;;;7.30;99.90;;;;;;4124231;28;20953;-74
2021/11/10 04:53:42;;;;;;;7.95;5.07;;;7.30;99.90;;;;;;4110504;28;20042;-74
2021/11/10 04:55:43;;;;;;;10.93;4.90;;;7.30;99.90;;;;;;4124034;28;20117;-73
2021/11/10 04:57:44;;;;;;;9.18;4.72;;;7.30;99.90;;;;;;4125461;28;20060;-74
2021/11/10 04:59:46;;;;;;;9.02;4.75;;;7.20;99.90;;;;;;4123612;28;20517;-74
2021/11/10 05:04:05;;;;;;;8.77;4.80;;;7.30;99.90;;;;;;4124096;28;20073;-74
2021/11/10 05:06:07;;;;;;;9.77;5.03;;;7.20;99.90;;;;;;4125007;28;20120;-73
2021/11/10 05:08:08;;;;;;;9.63;5.37;;;7.20;99.90;;;;;;4124071;28;20037;-73
2021/11/10 05:10:09;;;;;;;8.52;4.97;;;7.20;99.90;;;;;;4128997;28;20034;-73
2021/11/10 05:12:09;;;;;;;9.07;4.47;;;7.20;99.90;;;;;;4124723;28;20099;-73
2021/11/10 05:14:10;;;;;;;9.20;4.10;;;7.20;99.90;;;;;;4123830;28;20837;-73
2021/11/10 05:16:10;;;;;;;9.70;4.63;;;7.20;99.90;;;;;;4109659;28;20043;-73
2021/11/10 05:18:11;;;;;;;8.68;4.43;;;7.20;99.90;;;;;;4122884;28;20038;-74
2021/11/10 05:20:12;;;;;;;6.32;4.38;;;7.20;99.90;;;;;;4122275;28;20030;-74
2021/11/10 05:22:13;;;;;;;6.60;4.53;;;7.20;99.90;;;;;;4120430;28;20481;-73
2021/11/10 05:24:14;;;;;;;7.85;4.63;;;7.20;99.90;;;;;;4126101;28;20030;-74
2021/11/10 05:26:15;;;;;;;10.15;4.57;;;7.20;99.90;;;;;;4125064;28;20053;-73
2021/11/10 05:28:15;;;;;;;8.95;4.90;;;7.20;99.90;;;;;;4125334;28;20120;-74
2021/11/10 05:30:16;;;;;;;8.75;4.75;;;7.20;99.90;;;;;;4120371;28;20040;-74
2021/11/10 05:32:17;;;;;;;7.03;4.10;;;7.20;99.90;;;;;;4123914;28;20582;-73
2021/11/10 05:34:17;;;;;;;7.30;4.70;;;7.20;99.90;;;;;;4124801;28;20038;-74
2021/11/10 05:36:18;;;;;;;7.90;4.55;;;7.20;99.90;;;;;;4103963;28;20046;-73
2021/11/10 05:38:19;;;;;;;6.78;4.40;;;7.20;99.90;;;;;;4122886;28;20398;-73
2021/11/10 05:40:19;;;;;;;6.47;4.22;;;7.10;99.90;;;;;;4119150;28;20474;-74
2021/11/10 05:42:20;;;;;;;7.70;3.97;;;7.10;99.90;;;;;;4123270;28;20125;-74
2021/11/10 05:44:21;;;;;;;7.25;4.50;;;7.10;99.90;;;;;;4123093;28;20054;-73
2021/11/10 05:46:22;;;;;;;8.38;4.50;;;7.10;99.90;;;;;;4123480;28;20038;-74
2021/11/10 05:48:22;;;;;;;9.35;4.60;;;7.10;99.90;;;;;;4124725;28;20030;-73
2021/11/10 05:50:23;;;;;;;7.55;4.53;;;7.10;99.90;;;;;;4123681;28;20030;-73
2021/11/10 05:52:24;;;;;;;6.85;4.40;;;7.00;99.90;;;;;;4122910;28;20620;-74
2021/11/10 05:54:24;;;;;;;9.48;4.38;;;7.10;99.90;;;;;;4126155;28;20073;-73
2021/11/10 05:56:27;;;;;;;6.70;4.10;;;7.10;99.90;;;;;;4123859;28;20093;-72
2021/11/10 05:58:29;;;;;;;4.75;3.50;;;7.10;99.90;;;;;;4120878;28;20045;-72
2021/11/10 06:00:30;;;;;;;7.00;3.83;;;7.00;99.90;;;;;;4119448;28;20038;-72
2021/11/10 06:02:31;;;;;;;6.53;3.92;;;7.00;99.90;;;;;;4117772;28;20356;-72
2021/11/10 06:04:32;;;;;;;7.03;3.90;;;7.00;99.90;;;;;;4118340;28;20084;-72
2021/11/10 06:06:33;;;;;;;6.93;4.05;;;7.00;99.90;;;;;;4119513;28;20070;-72
2021/11/10 06:08:37;;;;;;;8.93;3.92;;;7.00;99.90;;;;;;4118430;28;20041;-73
2021/11/10 06:10:37;;;;;;;5.97;4.22;;;7.00;99.90;;;;;;4118904;28;20042;-72
2021/11/10 06:12:38;;;;;;;9.35;4.82;;;6.90;99.90;;;;;;4119961;28;20062;-73
2021/11/10 06:14:38;;;;;;;9.13;4.88;;;6.90;99.90;;;;;;4119709;28;20623;-72
2021/11/10 06:16:40;;;;;;;9.40;5.28;;;6.90;99.90;;;;;;4119344;28;20030;-72
2021/11/10 06:18:40;;;;;;;9.02;5.43;;;6.90;99.90;;;;;;4118155;28;20679;-72
2021/11/10 06:20:41;;;;;;;11.05;5.60;;;6.90;99.90;;;;;;4116626;28;20069;-73
2021/11/10 06:22:43;;;;;;;10.75;6.30;;;6.90;99.90;;;;;;4112175;28;20051;-72
2021/11/10 06:24:43;;;;;;;10.35;5.97;;;6.90;99.90;;;;;;4123204;28;20622;-72
2021/11/10 06:26:44;;;;;;;11.52;6.20;;;6.90;99.90;;;;;;4121292;28;20124;-72
2021/11/10 06:28:45;;;;;;;12.80;7.40;;;6.90;99.90;;;;;;4118074;28;20038;-72
2021/11/10 06:30:45;;;;;;;12.50;7.50;;;6.80;99.90;;;;;;4120395;28;20045;-72
2021/11/10 06:32:46;;;;;;;11.45;7.25;;;6.80;99.90;;;;;;4124404;28;20485;-73
2021/11/10 06:34:47;;;;;;;12.40;6.90;;;6.80;99.90;;;;;;4121733;28;20034;-72
2021/11/10 06:36:48;;;;;;;12.40;7.00;;;6.80;99.90;;;;;;4120815;28;20060;-73
2021/11/10 06:38:49;;;;;;;11.68;6.38;;;6.80;99.90;;;;;;4114485;28;20501;-72
2021/11/10 06:40:49;;;;;;;12.85;7.03;;;6.80;99.90;;;;;;4120225;28;20057;-72
2021/11/10 06:42:50;;;;;;;10.20;7.03;;;6.80;99.90;;;;;;4121266;28;20026;-72
2021/11/10 06:44:51;;;;;;;15.07;7.57;;;6.80;99.90;;;;;;4120745;28;20847;-72
2021/11/10 06:46:52;;;;;;;11.73;7.60;;;6.80;99.90;;;;;;4119427;28;20053;-72
2021/11/10 06:48:53;;;;;;;11.95;7.25;;;6.80;99.90;;;;;;4116089;28;20034;-72
2021/11/10 06:50:53;;;;;;;12.63;7.35;;;6.70;99.90;;;;;;4119886;28;20039;-72
2021/11/10 06:52:54;;;;;;;11.80;6.80;;;6.70;99.90;;;;;;4116269;28;20141;-73
2021/11/10 06:54:55;;;;;;;13.77;7.35;;;6.70;99.90;;;;;;4120080;28;20050;-73
2021/11/10 06:56:56;;;;;;;13.18;6.57;;;6.70;99.90;;;;;;4103147;28;20121;-72
2021/11/10 06:58:58;;;;;;;9.20;6.15;;;6.70;99.90;;;;;;4120565;28;20069;-73
2021/11/10 07:00:58;;;;;;;10.27;5.83;;;6.70;99.90;;;;;;4119975;28;20523;-73
2021/11/10 07:02:59;;;;;;;12.77;6.97;;;6.70;99.90;;;;;;4120932;28;20046;-72
2021/11/10 07:04:59;;;;;;;9.65;5.88;;;6.60;99.90;;;;;;4120982;28;20045;-72
2021/11/10 07:07:00;;;;;;;10.23;5.40;;;6.60;99.90;;;;;;4121136;28;20506;-73
2021/11/10 07:09:01;;;;;;;12.82;5.75;;;6.60;99.90;;;;;;4121242;28;20030;-72
2021/11/10 07:11:01;;;;;;;11.25;6.07;;;6.60;99.90;;;;;;4120174;28;20041;-72
2021/11/10 07:13:02;;;;;;;11.23;6.03;;;6.60;99.90;;;;;;4120915;28;20045;-73
2021/11/10 07:15:04;;;;;;;10.60;6.43;;;6.60;99.90;;;;;;4121576;28;20054;-73
2021/11/10 07:17:04;;;;;;;11.90;6.40;;;6.60;99.90;;;;;;4120603;28;20043;-72
2021/11/10 07:19:05;;;;;;;9.55;5.90;;;6.60;99.90;;;;;;4120596;28;20089;-73
2021/11/10 07:21:08;;;;;;;11.40;6.18;;;6.60;99.90;;;;;;4118903;28;20075;-73
2021/11/10 07:23:08;;;;;;;8.90;6.00;;;6.60;99.90;;;;;;4120279;28;20375;-73
2021/11/10 07:25:09;;;;;;;10.90;5.32;;;6.60;99.90;;;;;;4119688;28;20042;-73
2021/11/10 07:27:10;;;;;;;9.30;4.93;;;6.60;99.90;;;;;;4121207;28;20399;-73
2021/11/10 07:29:11;;;;;;;7.70;4.70;;;6.60;99.90;;;;;;4120644;28;20039;-72
2021/11/10 07:31:12;;;;;;;8.52;4.70;;;6.60;99.90;;;;;;4120729;28;20418;-72
2021/11/10 07:33:13;;;;;;;10.32;5.20;;;6.60;99.90;;;;;;4121686;28;20100;-73
2021/11/10 07:35:14;;;;;;;8.43;5.25;;;6.60;99.90;;;;;;4127765;28;20489;-73
2021/11/10 07:37:15;;;;;;;10.77;5.15;;;6.60;99.90;;;;;;4105044;28;20035;-73
2021/11/10 07:39:15;;;;;;;8.82;4.95;;;6.60;99.90;;;;;;4123528;28;20041;-73
2021/11/10 07:41:18;;;;;;;9.43;5.40;;;6.60;99.90;;;;;;4123360;28;20039;-72
2021/11/10 07:43:20;;;;;;;13.10;6.38;;;6.60;99.90;;;;;;4107010;28;20487;-72
2021/11/10 07:45:30;;;;;;;8.35;5.05;;;6.60;99.90;;;;;;4125772;28;20733;-73
2021/11/10 07:47:38;;;;;;;10.23;5.68;;;6.60;99.90;;;;;;4127318;28;20132;-72
2021/11/10 07:49:39;;;;;;;11.18;5.90;;;6.60;99.90;;;;;;4121310;28;20049;-73
2021/11/10 07:51:40;;;;;;;8.80;5.78;;;6.70;99.90;;;;;;4124677;28;20039;-73
2021/11/10 07:53:40;;;;;;;9.23;5.57;;;6.70;99.90;;;;;;4123455;28;20467;-73
2021/11/10 07:55:41;;;;;;;8.90;5.47;;;6.70;99.90;;;;;;4124663;28;20458;-73
2021/11/10 07:57:42;;;;;;;9.65;5.53;;;6.70;99.90;;;;;;4126799;28;20046;-73
2021/11/10 07:59:42;;;;;;;13.98;6.57;;;6.80;99.90;;;;;;4123033;28;20054;-73
2021/11/10 08:01:43;;;;;;;10.98;6.25;;;6.80;99.90;;;;;;4122333;28;20093;-73
2021/11/10 08:03:44;;;;;;;12.32;6.25;;;6.80;99.90;;;;;;4123267;28;20113;-73
2021/11/10 08:05:44;;;;;;;12.93;7.13;;;6.90;99.90;;;;;;4121397;28;20027;-73
2021/11/10 08:07:45;;;;;;;12.68;6.45;;;6.90;99.90;;;;;;4120749;28;20050;-73
2021/11/10 08:09:46;;;;;;;12.38;6.45;;;7.00;99.90;;;;;;4123494;28;20505;-73
2021/11/10 08:11:46;;;;;;;11.43;6.03;;;7.00;99.90;;;;;;4126707;28;20104;-73
2021/11/10 08:13:47;;;;;;;19.08;6.53;;;7.10;99.90;;;;;;4124197;28;20496;-74
2021/11/10 08:15:50;;;;;;;10.90;6.15;;;7.20;99.90;;;;;;4126379;28;20069;-72
2021/11/10 08:17:50;;;;;;;;;;;7.20;99.90;;;;;;4123178;28;20117;-73
2021/11/10 08:19:51;;;;;;;11.40;6.00;;;7.30;99.90;;;;;;4124487;28;19963;-73
2021/11/10 08:21:52;;;;;;;12.07;6.32;;;7.20;99.90;;;;;;4126495;28;20457;-73
2021/11/10 08:23:52;;;;;;;12.02;6.07;;;7.20;99.90;;;;;;4127186;28;20117;-73
2021/11/10 08:25:56;;;;;;;12.65;5.88;;;7.20;99.90;;;;;;4125270;28;20050;-73
2021/11/10 08:27:56;;;;;;;10.48;6.50;;;7.20;99.90;;;;;;4127023;28;20454;-72
2021/11/10 08:29:57;;;;;;;10.43;6.07;;;7.20;99.90;;;;;;4127643;28;20022;-73
2021/11/10 08:31:58;;;;;;;12.10;6.80;;;7.30;99.90;;;;;;4126405;28;20109;-73
2021/11/10 08:33:58;;;;;;;12.45;6.88;;;7.40;99.90;;;;;;4127106;28;20032;-73
2021/11/10 08:36:00;;;;;;;13.23;6.38;;;7.40;99.90;;;;;;4119643;28;20597;-73
2021/11/10 08:38:01;;;;;;;17.38;6.90;;;7.40;99.90;;;;;;4120410;28;20390;-73
2021/11/10 08:40:03;;;;;;;14.73;6.80;;;7.50;99.90;;;;;;4120160;28;20057;-73
2021/11/10 08:42:08;;;;;;;15.35;6.97;;;7.70;99.90;;;;;;4121087;28;20034;-73
2021/11/10 08:44:08;;;;;;;18.00;7.72;;;8.00;99.90;;;;;;4122341;28;20513;-73
2021/11/10 08:46:09;;;;;;;14.88;7.07;;;8.30;99.90;;;;;;4123174;28;20718;-73
2021/11/10 08:48:10;;;;;;;12.52;6.75;;;8.50;99.90;;;;;;4125273;28;20041;-73
2021/11/10 08:50:12;;;;;;;11.27;6.70;;;8.70;99.90;;;;;;4104499;28;20019;-75
2021/11/10 08:52:13;;;;;;;12.90;6.10;;;8.80;99.90;;;;;;4123348;28;20518;-75
2021/11/10 08:54:14;;;;;;;12.98;6.75;;;9.00;99.90;;;;;;4123680;28;20022;-75
2021/11/10 08:56:15;;;;;;;9.10;5.90;;;9.10;99.90;;;;;;4122840;28;20172;-75
2021/11/10 08:58:16;;;;;;;11.30;7.00;;;9.20;99.90;;;;;;4136943;28;20044;-75
2021/11/10 09:00:21;;;;;;;13.85;6.95;;;9.30;99.90;;;;;;4125863;28;20580;-75
2021/11/10 09:02:21;;;;;;;11.85;6.43;;;9.20;99.90;;;;;;4122202;28;20394;-76
2021/11/10 09:04:22;;;;;;;11.77;6.47;;;9.20;99.90;;;;;;4122792;28;20053;-73
2021/11/10 09:06:23;;;;;;;15.02;6.97;;;9.30;99.90;;;;;;4120265;28;20121;-73
2021/11/10 09:08:31;;;;;;;10.15;6.32;;;9.30;99.90;;;;;;4123823;28;20304;-74
2021/11/10 09:10:33;;;;;;;10.02;5.60;;;9.30;99.90;;;;;;4124228;28;20498;-74
2021/11/10 09:12:34;;;;;;;9.87;6.13;;;9.40;99.90;;;;;;4123760;28;20030;-74
2021/11/10 09:14:35;;;;;;;12.05;5.88;;;9.50;99.90;;;;;;4125836;28;20409;-74
2021/11/10 09:16:35;;;;;;;12.57;6.40;;;9.60;99.90;;;;;;4123971;28;20294;-74
2021/11/10 09:18:36;;;;;;;11.38;6.55;;;9.60;99.90;;;;;;4126108;28;20486;-74
2021/11/10 09:20:38;;;;;;;11.13;6.93;;;9.60;99.90;;;;;;4125796;28;20042;-75
2021/11/10 09:22:40;;;;;;;14.23;6.57;;;9.50;99.90;;;;;;4142929;28;20124;-73
2021/11/10 09:24:41;;;;;;;13.05;6.57;;;9.50;99.90;;;;;;4138498;28;20421;-73
2021/11/10 09:26:41;;;;;;;12.77;6.53;;;9.40;99.90;;;;;;4125070;28;20331;-73
2021/11/10 09:28:42;;;;;;;9.65;6.22;;;9.40;99.90;;;;;;4122929;28;20498;-73
2021/11/10 09:30:44;;;;;;;12.77;6.63;;;9.20;99.90;;;;;;4121758;28;20042;-73
2021/11/10 09:32:46;;;;;;;12.25;6.75;;;9.20;99.90;;;;;;4126819;28;20042;-73
2021/11/10 09:34:47;;;;;;;14.33;6.93;;;9.10;99.90;;;;;;4125679;28;20049;-73
2021/11/10 09:36:48;;;;;;;10.95;6.32;;;9.10;99.90;;;;;;4120678;28;20582;-73
2021/11/10 09:38:49;;;;;;;11.27;6.40;;;9.10;99.90;;;;;;4103654;28;20057;-73
2021/11/10 09:40:51;;;;;;;9.45;6.70;;;9.10;99.90;;;;;;4119389;28;20045;-73
2021/11/10 09:42:53;;;;;;;14.52;6.80;;;9.10;99.90;;;;;;4121459;28;20034;-73
2021/11/10 09:44:54;;;;;;;12.03;6.27;;;9.00;99.90;;;;;;4116849;28;20046;-73
2021/11/10 09:46:55;;;;;;;11.82;7.07;;;9.00;99.90;;;;;;4118756;28;20049;-73
2021/11/10 09:48:58;;;;;;;12.73;6.70;;;8.90;99.90;;;;;;4122355;28;20398;-73
2021/11/10 09:51:00;;;;;;;11.05;6.38;;;8.90;99.90;;;;;;4121317;28;20434;-73
2021/11/10 09:53:01;;;;;;;13.30;6.50;;;8.80;99.90;;;;;;4118801;28;20303;-73
2021/11/10 09:55:04;;;;;;;12.47;7.10;;;8.70;99.90;;;;;;4119191;28;20058;-73
2021/11/10 09:57:06;;;;;;;13.75;6.90;;;8.70;99.90;;;;;;4120608;28;20307;-73
2021/11/10 09:59:06;;;;;;;11.80;7.25;;;8.60;99.90;;;;;;4119517;28;20034;-73
2021/11/10 10:01:09;;;;;;;13.50;7.18;;;8.60;99.90;;;;;;4120119;28;20125;-73
2021/11/10 10:03:11;;;;;;;11.75;6.60;;;8.50;99.90;;;;;;4116992;28;20073;-73
2021/11/10 10:05:13;;;;;;;11.18;7.15;;;8.60;99.90;;;;;;4120770;28;20466;-73
2021/11/10 10:07:14;;;;;;;10.40;6.90;;;8.60;99.90;;;;;;4119517;28;20462;-73
2021/11/10 10:09:15;;;;;;;9.77;6.00;;;8.60;99.90;;;;;;4120564;28;20030;-73
2021/11/10 10:11:15;;;;;;;9.98;5.88;;;8.70;99.90;;;;;;4121006;28;20034;-73
2021/11/10 10:13:18;;;;;;;9.63;6.30;;;8.80;99.90;;;;;;4121846;28;20132;-73
2021/11/10 10:15:20;;;;;;;9.40;6.60;;;8.80;99.90;;;;;;4121618;28;20035;-73
2021/11/10 10:17:36;;;;;;;11.45;6.75;;;8.90;99.90;;;;;;4120929;28;20148;-73
2021/11/10 10:19:42;;;;;;;9.60;6.35;;;8.80;99.90;;;;;;4122342;28;20050;-73
2021/11/10 10:21:44;;;;;;;11.02;6.50;;;8.90;99.90;;;;;;4120146;28;20052;-73
2021/11/10 10:23:49;;;;;;;13.30;6.55;;;8.90;99.90;;;;;;4121740;28;20121;-73
2021/11/10 10:25:57;;;;;;;8.43;5.75;;;9.00;99.90;;;;;;4120754;28;20049;-73
2021/11/10 10:27:58;;;;;;;11.05;6.15;;;9.00;99.90;;;;;;4119138;28;20045;-73
2021/11/10 10:30:27;;;;;;;11.98;6.50;;;9.10;99.90;;;;;;4119597;28;20034;-74
2021/11/10 10:32:37;;;;;;;10.25;5.78;;;9.10;99.90;;;;;;4108699;28;20038;-73
2021/11/10 10:34:38;;;;;;;11.52;5.88;;;9.20;99.90;;;;;;4119970;28;20038;-73
2021/11/10 10:36:44;;;;;;;11.98;6.63;;;9.20;99.90;;;;;;4119351;28;20110;-73
2021/11/10 10:38:47;;;;;;;12.15;6.38;;;9.20;99.90;;;;;;4118274;28;20038;-73